createdAt,value
2023-03-05T00:02:20.229Z,8.47
2023-03-05T00:04:47.681Z,8.65
2023-03-05T00:07:14.842Z,8.63
2023-03-05T00:09:42.023Z,8.46
2023-03-05T00:12:09.590Z,8.83
2023-03-05T00:14:36.741Z,8.50
2023-03-05T00:17:04.282Z,8.51
2023-03-05T00:19:31.734Z,8.12
2023-03-05T00:21:58.902Z,8.99
2023-03-05T00:24:26.129Z,8.58
2023-03-05T00:26:54.602Z,9.11
2023-03-05T00:29:22.739Z,8.77
2023-03-05T00:31:50.126Z,8.73
2023-03-05T00:34:18.177Z,9.36
2023-03-05T00:36:50.010Z,9.32
2023-03-05T00:39:18.432Z,9.01
2023-03-05T00:41:46.498Z,9.18
2023-03-05T00:44:13.666Z,9.43
2023-03-05T00:46:41.317Z,8.94
2023-03-05T00:49:08.743Z,9.07
2023-03-05T00:51:35.891Z,9.36
2023-03-05T00:54:03.784Z,8.76
2023-03-05T00:56:30.990Z,8.77
2023-03-05T00:58:58.352Z,8.59
2023-03-05T01:01:26.601Z,8.27
2023-03-05T01:03:56.384Z,9.21
2023-03-05T01:06:24.204Z,8.73
2023-03-05T01:08:51.652Z,8.91
2023-03-05T01:11:18.825Z,9.57
2023-03-05T01:13:46.062Z,8.98
2023-03-05T01:16:13.536Z,9.57
2023-03-05T01:18:40.813Z,9.39
2023-03-05T01:21:08.026Z,9.01
2023-03-05T01:23:37.380Z,9.44
2023-03-05T01:26:05.457Z,8.78
2023-03-05T01:28:33.188Z,8.19
2023-03-05T01:31:00.624Z,9.07
2023-03-05T01:33:27.818Z,9.00
2023-03-05T01:35:55.022Z,9.12
2023-03-05T01:38:22.612Z,9.23
2023-03-05T01:40:49.760Z,8.46
2023-03-05T01:43:22.974Z,8.68
2023-03-05T01:46:09.268Z,8.35
2023-03-05T01:48:36.441Z,8.16
2023-03-05T01:51:04.029Z,8.10
2023-03-05T01:53:31.181Z,7.62
2023-03-05T01:55:58.368Z,8.75
2023-03-05T01:58:25.805Z,9.02
2023-03-05T02:00:53.385Z,8.96
2023-03-05T02:03:20.935Z,9.25
2023-03-05T02:05:48.145Z,8.35
2023-03-05T02:08:16.511Z,8.97
2023-03-05T02:10:46.781Z,9.14
2023-03-05T02:13:14.916Z,9.26
2023-03-05T02:15:42.612Z,9.06
2023-03-05T02:18:10.078Z,9.60
2023-03-05T02:20:52.281Z,9.90
2023-03-05T02:23:21.037Z,10.09
2023-03-05T02:25:48.277Z,10.31
2023-03-05T02:28:18.843Z,10.57
2023-03-05T02:30:46.461Z,10.47
2023-03-05T02:33:14.085Z,10.18
2023-03-05T02:35:41.563Z,9.89
2023-03-05T02:38:09.611Z,10.15
2023-03-05T02:40:36.797Z,10.67
2023-03-05T02:43:04.088Z,10.69
2023-03-05T02:45:31.616Z,10.94
2023-03-05T02:47:58.856Z,10.64
2023-03-05T02:50:26.864Z,10.76
2023-03-05T02:52:54.503Z,10.82
2023-03-05T02:55:22.177Z,10.90
2023-03-05T02:57:49.348Z,10.07
2023-03-05T03:00:17.011Z,10.33
2023-03-05T03:02:44.183Z,10.50
2023-03-05T03:05:11.362Z,10.44
2023-03-05T03:07:38.823Z,10.60
2023-03-05T03:10:06.619Z,10.63
2023-03-05T03:12:37.335Z,10.82
2023-03-05T03:15:04.944Z,10.42
2023-03-05T03:17:32.093Z,10.56
2023-03-05T03:19:59.252Z,10.48
2023-03-05T03:22:26.720Z,10.64
2023-03-05T03:24:53.878Z,10.38
2023-03-05T03:27:21.142Z,10.46
2023-03-05T03:29:48.628Z,10.41
2023-03-05T03:32:15.882Z,10.06
2023-03-05T03:34:44.611Z,10.20
2023-03-05T03:37:12.032Z,10.10
2023-03-05T03:39:39.308Z,9.82
2023-03-05T03:42:06.695Z,10.11
2023-03-05T03:44:34.121Z,10.34
2023-03-05T03:47:01.259Z,10.33
2023-03-05T03:49:28.548Z,10.33
2023-03-05T03:51:56.046Z,10.00
2023-03-05T03:54:23.195Z,10.05
2023-03-05T03:56:50.386Z,9.82
2023-03-05T03:59:17.817Z,10.14
2023-03-05T04:01:44.988Z,10.16
2023-03-05T04:04:12.621Z,10.08
2023-03-05T04:06:39.851Z,10.05
2023-03-05T04:09:08.369Z,10.21
2023-03-05T04:11:36.993Z,9.99
2023-03-05T04:14:04.966Z,9.83
2023-03-05T04:16:32.115Z,9.37
2023-03-05T04:18:59.558Z,9.84
2023-03-05T04:21:26.764Z,9.14
2023-03-05T04:23:53.904Z,9.46
2023-03-05T04:26:21.342Z,9.46
2023-03-05T04:28:49.298Z,9.52
2023-03-05T04:31:17.301Z,9.78
2023-03-05T04:33:44.822Z,9.63
2023-03-05T04:36:11.991Z,9.63
2023-03-05T04:38:39.147Z,9.68
2023-03-05T04:41:06.750Z,9.70
2023-03-05T04:43:33.943Z,9.81
2023-03-05T04:46:01.099Z,10.22
2023-03-05T04:48:28.556Z,10.39
2023-03-05T04:50:57.766Z,10.28
2023-03-05T04:53:25.042Z,10.29
2023-03-05T04:55:53.446Z,10.51
2023-03-05T04:58:20.631Z,10.64
2023-03-05T05:00:47.889Z,10.71
2023-03-05T05:03:15.350Z,10.84
2023-03-05T05:05:42.630Z,10.78
2023-03-05T05:08:10.158Z,10.68
2023-03-05T05:10:40.156Z,10.93
2023-03-05T05:13:07.346Z,11.00
2023-03-05T05:15:34.534Z,10.77
2023-03-05T05:18:01.969Z,10.77
2023-03-05T05:20:29.307Z,10.92
2023-03-05T05:22:56.455Z,10.87
2023-03-05T05:25:23.891Z,11.00
2023-03-05T05:27:51.096Z,10.95
2023-03-05T05:30:18.404Z,10.93
2023-03-05T05:32:45.829Z,10.84
2023-03-05T05:35:13.101Z,10.44
2023-03-05T05:37:40.283Z,10.61
2023-03-05T05:40:08.354Z,10.81
2023-03-05T05:42:35.539Z,10.38
2023-03-05T05:45:03.132Z,10.66
2023-03-05T05:47:30.803Z,10.85
2023-03-05T05:49:57.969Z,10.71
2023-03-05T05:52:25.134Z,10.94
2023-03-05T05:54:52.605Z,10.68
2023-03-05T05:57:19.757Z,10.69
2023-03-05T05:59:46.921Z,10.93
2023-03-05T06:02:14.415Z,10.60
2023-03-05T06:04:41.870Z,10.89
2023-03-05T06:07:09.040Z,11.11
2023-03-05T06:09:36.539Z,11.20
2023-03-05T06:12:04.252Z,11.03
2023-03-05T06:14:31.458Z,11.02
2023-03-05T06:16:58.680Z,11.37
2023-03-05T06:19:26.122Z,11.35
2023-03-05T06:21:53.273Z,11.55
2023-03-05T06:24:20.487Z,11.41
2023-03-05T06:26:49.159Z,11.59
2023-03-05T06:29:16.669Z,11.75
2023-03-05T06:31:43.834Z,11.56
2023-03-05T06:34:11.298Z,11.38
2023-03-05T06:36:38.817Z,11.67
2023-03-05T06:39:06.147Z,11.77
2023-03-05T06:41:33.617Z,11.82
2023-03-05T06:44:02.393Z,11.92
2023-03-05T06:46:30.493Z,11.90
2023-03-05T06:48:58.815Z,11.86
2023-03-05T06:51:29.984Z,12.03
2023-03-05T06:53:59.672Z,11.80
2023-03-05T06:56:26.986Z,11.27
2023-03-05T06:58:54.230Z,11.57
2023-03-05T07:01:21.857Z,10.37
2023-03-05T07:03:49.893Z,9.96
2023-03-05T07:06:17.209Z,10.62
2023-03-05T07:08:47.619Z,10.69
2023-03-05T07:11:21.059Z,9.96
2023-03-05T07:13:48.780Z,9.93
2023-03-05T07:16:20.153Z,10.49
2023-03-05T07:18:47.539Z,8.49
2023-03-05T07:21:15.744Z,8.84
2023-03-05T07:23:42.853Z,9.19
2023-03-05T07:26:10.647Z,9.01
2023-03-05T07:28:38.062Z,9.15
2023-03-05T07:31:06.561Z,8.85
2023-03-05T07:33:34.949Z,8.44
2023-03-05T07:36:04.429Z,9.04
2023-03-05T07:38:32.081Z,8.66
2023-03-05T07:41:05.878Z,8.16
2023-03-05T07:43:33.324Z,8.83
2023-03-05T07:46:00.852Z,8.62
2023-03-05T07:48:28.324Z,8.00
2023-03-05T07:51:05.716Z,8.85
2023-03-05T07:53:32.909Z,8.70
2023-03-05T07:56:00.374Z,9.11
2023-03-05T07:58:27.565Z,8.53
2023-03-05T08:00:54.749Z,8.64
2023-03-05T08:03:22.282Z,7.90
2023-03-05T08:05:49.455Z,8.07
2023-03-05T08:08:16.623Z,8.37
2023-03-05T08:10:44.289Z,7.98
2023-03-05T08:13:11.542Z,8.95
2023-03-05T08:15:38.753Z,8.64
2023-03-05T08:18:06.826Z,8.97
2023-03-05T08:20:37.021Z,8.86
2023-03-05T08:23:04.278Z,8.57
2023-03-05T08:25:31.723Z,7.75
2023-03-05T08:27:58.884Z,7.72
2023-03-05T08:30:27.529Z,8.81
2023-03-05T08:32:55.354Z,9.57
2023-03-05T08:35:22.574Z,9.66
2023-03-05T08:37:49.827Z,9.79
2023-03-05T08:40:20.590Z,9.17
2023-03-05T08:42:47.807Z,9.69
2023-03-05T08:45:14.953Z,9.90
2023-03-05T08:47:42.396Z,9.75
2023-03-05T08:50:09.817Z,8.38
2023-03-05T08:52:37.151Z,8.50
2023-03-05T08:55:04.826Z,8.93
2023-03-05T08:57:31.998Z,8.75
2023-03-05T08:59:59.170Z,9.27
2023-03-05T09:02:26.793Z,8.28
2023-03-05T09:04:54.069Z,9.22
2023-03-05T09:07:21.233Z,9.46
2023-03-05T09:09:48.674Z,9.53
2023-03-05T09:12:16.059Z,9.64
2023-03-05T09:14:43.558Z,8.94
2023-03-05T09:17:11.004Z,9.47
2023-03-05T09:19:38.376Z,8.61
2023-03-05T09:22:05.521Z,9.26
2023-03-05T09:24:32.964Z,10.29
2023-03-05T09:27:00.440Z,9.84
2023-03-05T09:29:27.849Z,8.27
2023-03-05T09:31:55.326Z,9.24
2023-03-05T09:34:23.052Z,9.64
2023-03-05T09:36:50.220Z,8.45
2023-03-05T09:39:17.670Z,8.15
2023-03-05T09:41:44.776Z,8.87
2023-03-05T09:44:30.398Z,9.54
2023-03-05T09:47:10.017Z,9.87
2023-03-05T09:49:43.221Z,9.16
2023-03-05T09:52:30.127Z,9.09
2023-03-05T09:54:57.364Z,9.41
2023-03-05T09:57:36.639Z,10.35
2023-03-05T10:00:08.861Z,10.38
2023-03-05T10:02:40.440Z,9.13
2023-03-05T10:05:26.362Z,8.20
2023-03-05T10:07:54.707Z,8.88
2023-03-05T10:10:34.026Z,8.77
2023-03-05T10:13:02.056Z,9.28
2023-03-05T10:15:32.743Z,9.29
2023-03-05T10:18:09.598Z,8.70
2023-03-05T10:20:40.099Z,8.25
2023-03-05T10:23:14.044Z,9.07
2023-03-05T10:26:11.105Z,9.45
2023-03-05T10:28:47.468Z,9.82
2023-03-05T10:31:22.208Z,10.02
2023-03-05T10:33:53.685Z,9.73
2023-03-05T10:36:27.760Z,10.67
2023-03-05T10:39:02.800Z,11.20
2023-03-05T10:41:39.557Z,9.80
2023-03-05T10:44:11.747Z,10.03
2023-03-05T10:46:39.411Z,10.28
2023-03-05T10:49:26.948Z,8.89
2023-03-05T10:52:19.222Z,9.47
2023-03-05T10:54:46.562Z,9.54
2023-03-05T10:57:17.457Z,9.56
2023-03-05T10:59:50.601Z,10.38
2023-03-05T11:02:18.745Z,9.79
2023-03-05T11:04:47.260Z,9.86
2023-03-05T11:07:14.997Z,10.33
2023-03-05T11:09:43.474Z,9.60
2023-03-05T11:12:12.277Z,9.93
2023-03-05T11:14:58.489Z,9.56
2023-03-05T11:17:30.446Z,10.17
2023-03-05T11:20:00.705Z,9.44
2023-03-05T11:22:32.256Z,9.27
2023-03-05T11:25:13.294Z,9.54
2023-03-05T11:27:48.970Z,8.89
2023-03-05T11:30:31.324Z,9.92
2023-03-05T11:33:10.470Z,9.68
2023-03-05T11:35:39.267Z,9.45
2023-03-05T11:38:07.709Z,10.57
2023-03-05T11:40:37.933Z,10.23
2023-03-05T11:43:05.659Z,9.97
2023-03-05T11:45:34.397Z,10.37
2023-03-05T11:48:06.834Z,10.85
2023-03-05T11:50:35.871Z,10.79
2023-03-05T11:53:20.123Z,11.20
2023-03-05T11:55:57.060Z,10.67
2023-03-05T11:58:42.925Z,11.38
2023-03-05T12:01:21.131Z,10.58
2023-03-05T12:03:48.628Z,10.26
2023-03-05T12:06:30.280Z,10.98
2023-03-05T12:08:59.088Z,9.98
2023-03-05T12:11:27.680Z,9.82
2023-03-05T12:14:20.425Z,10.38
2023-03-05T12:16:59.100Z,9.66
2023-03-05T12:19:33.064Z,9.93
2023-03-05T12:22:00.726Z,10.20
2023-03-05T12:24:28.631Z,9.62
2023-03-05T12:27:05.984Z,10.04
2023-03-05T12:29:33.437Z,9.62
2023-03-05T12:32:01.710Z,9.73
2023-03-05T12:34:41.756Z,9.47
2023-03-05T12:37:12.735Z,10.01
2023-03-05T12:39:52.641Z,10.10
2023-03-05T12:42:29.099Z,10.19
2023-03-05T12:45:11.970Z,10.47
2023-03-05T12:47:40.596Z,11.35
2023-03-05T12:50:28.293Z,11.26
2023-03-05T12:52:57.421Z,10.82
2023-03-05T12:55:25.064Z,10.59
2023-03-05T12:58:13.142Z,11.10
2023-03-05T13:00:44.204Z,11.14
2023-03-05T13:03:17.672Z,10.88
2023-03-05T13:05:52.953Z,11.12
2023-03-05T13:08:23.220Z,12.02
2023-03-05T13:10:54.810Z,11.69
2023-03-05T13:13:24.117Z,11.34
2023-03-05T13:15:55.196Z,10.59
2023-03-05T13:18:27.237Z,10.45
2023-03-05T13:21:08.958Z,10.33
2023-03-05T13:23:36.757Z,10.96
2023-03-05T13:26:16.928Z,9.42
2023-03-05T13:28:46.377Z,9.33
2023-03-05T13:31:22.624Z,9.51
2023-03-05T13:33:54.320Z,9.59
2023-03-05T13:36:23.259Z,9.66
2023-03-05T13:38:50.688Z,9.87
2023-03-05T13:41:20.713Z,9.26
2023-03-05T13:44:00.447Z,9.52
2023-03-05T13:46:36.015Z,10.74
2023-03-05T13:49:18.198Z,9.79
2023-03-05T13:52:03.473Z,8.97
2023-03-05T13:54:32.473Z,9.33
2023-03-05T13:57:02.201Z,9.98
2023-03-05T13:59:32.460Z,10.99
2023-03-05T14:02:02.580Z,10.69
2023-03-05T14:04:36.470Z,9.83
2023-03-05T14:07:09.163Z,10.19
2023-03-05T14:09:37.699Z,9.34
2023-03-05T14:12:14.869Z,10.30
2023-03-05T14:14:43.840Z,10.21
2023-03-05T14:17:30.901Z,11.29
2023-03-05T14:20:13.656Z,10.54
2023-03-05T14:22:42.332Z,10.14
2023-03-05T14:25:30.191Z,9.52
2023-03-05T14:27:59.601Z,10.05
2023-03-05T14:30:31.112Z,9.95
2023-03-05T14:32:59.823Z,9.62
2023-03-05T14:35:29.271Z,10.75
2023-03-05T14:37:58.336Z,9.88
2023-03-05T14:40:29.451Z,10.18
2023-03-05T14:43:01.884Z,9.67
2023-03-05T14:45:33.383Z,8.94
2023-03-05T14:48:03.244Z,10.29
2023-03-05T14:50:35.317Z,9.36
2023-03-05T14:53:30.310Z,9.49
2023-03-05T14:56:00.299Z,10.36
2023-03-05T14:58:29.995Z,9.76
2023-03-05T15:00:58.908Z,9.29
2023-03-05T15:03:28.458Z,10.03
2023-03-05T15:05:58.100Z,9.50
2023-03-05T15:08:27.410Z,8.86
2023-03-05T15:10:56.223Z,9.90
2023-03-05T15:13:26.958Z,9.05
2023-03-05T15:15:56.603Z,10.07
2023-03-05T15:18:25.534Z,10.21
2023-03-05T15:20:53.857Z,10.28
2023-03-05T15:23:22.369Z,10.09
2023-03-05T15:25:51.229Z,9.45
2023-03-05T15:28:19.646Z,9.60
2023-03-05T15:30:48.111Z,10.89
2023-03-05T15:33:20.032Z,10.73
2023-03-05T15:35:48.882Z,9.81
2023-03-05T15:38:18.336Z,10.26
2023-03-05T15:40:47.297Z,10.73
2023-03-05T15:43:26.526Z,10.51
2023-03-05T15:45:55.740Z,9.66
2023-03-05T15:48:24.343Z,9.98
2023-03-05T15:50:54.662Z,10.49
2023-03-05T15:53:24.181Z,10.13
2023-03-05T15:55:52.565Z,10.96
2023-03-05T15:58:21.601Z,8.98
2023-03-05T16:00:50.214Z,10.05
2023-03-05T16:03:19.567Z,9.57
2023-03-05T16:05:48.159Z,9.87
2023-03-05T16:08:16.903Z,9.02
2023-03-05T16:10:47.029Z,9.24
2023-03-05T16:13:15.868Z,9.82
2023-03-05T16:15:44.616Z,9.61
2023-03-05T16:18:14.888Z,9.96
2023-03-05T16:20:43.521Z,10.17
2023-03-05T16:23:12.186Z,9.96
2023-03-05T16:25:42.205Z,9.67
2023-03-05T16:28:11.361Z,9.31
2023-03-05T16:30:40.613Z,10.18
2023-03-05T16:33:09.870Z,9.95
2023-03-05T16:35:38.627Z,8.85
2023-03-05T16:38:09.045Z,9.20
2023-03-05T16:41:06.316Z,9.49
2023-03-05T16:43:27.031Z,8.59
2023-03-05T16:45:56.718Z,9.86
2023-03-05T16:48:26.949Z,10.06
2023-03-05T16:50:56.802Z,10.06
2023-03-05T16:53:24.922Z,9.86
2023-03-05T16:55:53.554Z,9.00
2023-03-05T16:58:22.620Z,10.19
2023-03-05T17:00:51.709Z,10.26
2023-03-05T17:03:20.595Z,10.55
2023-03-05T17:05:49.743Z,11.01
2023-03-05T17:08:18.164Z,10.46
2023-03-05T17:10:47.930Z,10.77
2023-03-05T17:13:16.912Z,11.20
2023-03-05T17:15:47.447Z,11.33
2023-03-05T17:18:16.960Z,11.68
2023-03-05T17:20:46.118Z,11.91
2023-03-05T17:23:20.908Z,11.77
2023-03-05T17:25:49.410Z,11.13
2023-03-05T17:28:18.119Z,10.89
2023-03-05T17:30:48.554Z,11.77
2023-03-05T17:33:20.042Z,12.08
2023-03-05T17:35:50.819Z,12.07
2023-03-05T17:38:19.424Z,11.84
2023-03-05T17:40:48.490Z,11.95
2023-03-05T17:43:19.256Z,11.40
2023-03-05T17:45:47.945Z,10.90
2023-03-05T17:48:17.403Z,10.44
2023-03-05T17:50:48.526Z,9.07
2023-03-05T17:53:17.442Z,9.50
2023-03-05T17:55:46.370Z,10.11
2023-03-05T17:58:15.860Z,10.64
2023-03-05T18:00:46.540Z,10.61
2023-03-05T18:03:17.479Z,10.50
2023-03-05T18:05:45.895Z,9.77
2023-03-05T18:08:15.124Z,10.41
2023-03-05T18:10:45.455Z,11.04
2023-03-05T18:13:14.251Z,11.33
2023-03-05T18:15:49.158Z,10.83
2023-03-05T18:18:18.012Z,10.60
2023-03-05T18:20:48.782Z,9.79
2023-03-05T18:23:18.102Z,10.13
2023-03-05T18:25:48.627Z,9.48
2023-03-05T18:28:20.097Z,9.16
2023-03-05T18:30:49.884Z,9.41
2023-03-05T18:33:20.296Z,10.61
2023-03-05T18:35:52.750Z,10.29
2023-03-05T18:38:21.985Z,10.76
2023-03-05T18:40:52.059Z,10.13
2023-03-05T18:43:21.238Z,9.73
2023-03-05T18:45:53.679Z,10.19
2023-03-05T18:48:26.405Z,9.39
2023-03-05T18:50:55.045Z,10.68
2023-03-05T18:53:24.396Z,10.22
2023-03-05T18:55:53.185Z,10.41
2023-03-05T18:58:23.017Z,11.09
2023-03-05T19:00:52.463Z,11.14
2023-03-05T19:03:22.875Z,11.34
2023-03-05T19:05:55.171Z,11.58
2023-03-05T19:08:23.669Z,11.38
2023-03-05T19:10:53.870Z,11.42
2023-03-05T19:13:35.994Z,11.89
2023-03-05T19:16:13.526Z,11.92
2023-03-05T19:18:54.017Z,11.65
2023-03-05T19:21:24.532Z,11.71
2023-03-05T19:23:53.289Z,11.96
2023-03-05T19:26:23.094Z,12.02
2023-03-05T19:28:52.236Z,11.99
2023-03-05T19:31:21.179Z,11.80
2023-03-05T19:33:49.434Z,11.88
2023-03-05T19:36:18.063Z,12.00
2023-03-05T19:38:49.735Z,11.80
2023-03-05T19:41:20.693Z,11.80
2023-03-05T19:43:50.716Z,11.87
2023-03-05T19:46:20.121Z,11.25
2023-03-05T19:48:48.276Z,11.52
2023-03-05T19:51:20.374Z,11.52
2023-03-05T19:53:49.873Z,11.67
2023-03-05T19:56:18.891Z,11.61
2023-03-05T19:58:49.497Z,11.69
2023-03-05T20:01:20.089Z,11.64
2023-03-05T20:03:49.792Z,11.68
2023-03-05T20:06:18.715Z,11.63
2023-03-05T20:08:47.378Z,11.68
2023-03-05T20:11:17.970Z,11.65
2023-03-05T20:13:47.176Z,11.64
2023-03-05T20:16:19.878Z,11.62
2023-03-05T20:18:53.733Z,11.69
2023-03-05T20:21:24.356Z,11.70
2023-03-05T20:23:53.795Z,11.51
2023-03-05T20:26:23.615Z,11.52
2023-03-05T20:28:52.627Z,11.46
2023-03-05T20:31:28.287Z,11.48
2023-03-05T20:33:59.266Z,11.79
2023-03-05T20:36:27.647Z,11.86
2023-03-05T20:38:56.480Z,11.75
2023-03-05T20:41:25.648Z,11.74
2023-03-05T20:43:54.352Z,11.75
2023-03-05T20:46:25.856Z,11.95
2023-03-05T20:48:59.563Z,12.07
2023-03-05T20:51:33.027Z,11.83
2023-03-05T20:54:04.516Z,11.90
2023-03-05T20:56:33.581Z,11.92
2023-03-05T20:59:04.382Z,11.75
2023-03-05T21:01:33.868Z,11.95
2023-03-05T21:04:03.251Z,11.68
2023-03-05T21:06:33.391Z,11.88
2023-03-05T21:09:01.536Z,11.81
2023-03-05T21:11:29.856Z,11.69
2023-03-05T21:13:58.185Z,11.88
2023-03-05T21:16:26.810Z,11.73
2023-03-05T21:18:57.601Z,11.54
2023-03-05T21:21:25.772Z,11.77
2023-03-05T21:23:53.953Z,11.49
2023-03-05T21:26:23.601Z,11.72
2023-03-05T21:28:52.029Z,11.61
2023-03-05T21:31:21.510Z,11.90
2023-03-05T21:33:49.989Z,11.97
2023-03-05T21:36:20.602Z,11.91
2023-03-05T21:38:48.290Z,11.88
2023-03-05T21:41:18.259Z,11.98
2023-03-05T21:43:45.811Z,11.91
2023-03-05T21:46:13.235Z,11.93
2023-03-05T21:48:43.325Z,11.82
2023-03-05T21:51:13.882Z,11.82
2023-03-05T21:53:41.666Z,11.91
2023-03-05T21:56:28.116Z,11.98
2023-03-05T21:58:55.604Z,11.86
2023-03-05T22:01:22.922Z,11.93
2023-03-05T22:03:50.528Z,11.82
2023-03-05T22:06:18.264Z,12.06
2023-03-05T22:08:45.524Z,11.98
2023-03-05T22:11:13.954Z,12.11
2023-03-05T22:13:41.368Z,11.94
2023-03-05T22:16:09.273Z,12.02
2023-03-05T22:18:37.032Z,12.12
2023-03-05T22:21:04.387Z,12.22
2023-03-05T22:23:34.020Z,12.14
2023-03-05T22:26:05.496Z,12.02
2023-03-05T22:28:33.184Z,12.02
2023-03-05T22:31:00.471Z,12.05
2023-03-05T22:33:28.157Z,12.20
2023-03-05T22:35:55.391Z,12.12
2023-03-05T22:38:22.862Z,12.17
2023-03-05T22:40:50.513Z,12.15
2023-03-05T22:43:18.329Z,12.27
2023-03-05T22:45:45.788Z,12.31
2023-03-05T22:48:13.288Z,12.36
2023-03-05T22:50:41.436Z,12.27
2023-03-05T22:53:08.714Z,12.20
2023-03-05T22:55:40.123Z,12.26
2023-03-05T22:58:07.345Z,12.26
2023-03-05T23:00:34.543Z,12.08
2023-03-05T23:03:02.239Z,12.00
2023-03-05T23:05:29.446Z,12.13
2023-03-05T23:07:56.620Z,12.27
2023-03-05T23:10:26.922Z,12.21
2023-03-05T23:12:54.753Z,12.20
2023-03-05T23:15:25.756Z,12.32
2023-03-05T23:17:53.540Z,12.34
2023-03-05T23:20:21.669Z,12.23
2023-03-05T23:22:49.117Z,12.25
2023-03-05T23:25:16.635Z,12.07
2023-03-05T23:27:43.833Z,12.09
2023-03-05T23:30:20.987Z,12.04
2023-03-05T23:33:14.782Z,12.12
2023-03-05T23:35:42.989Z,11.80
2023-03-05T23:38:13.172Z,11.74
2023-03-05T23:40:41.569Z,11.60
2023-03-05T23:43:08.886Z,11.78
2023-03-05T23:45:36.339Z,12.07
2023-03-05T23:48:03.676Z,12.15
2023-03-05T23:50:32.259Z,11.81
2023-03-05T23:53:01.842Z,11.89
2023-03-05T23:55:33.838Z,12.27
2023-03-05T23:58:01.326Z,12.16
